Terminal Aerodrome Forecast
Issued by NWS

Home | Current Version | Previous Version | Text Only | Print | Product List | Glossary On
Versions: 1 2 3 4 5 6 7 8 9 10 11 12 13 14 15 16 17 18 19 20 21 22 23 24 25 26
000
FTUS45 KGGW 262333
TAFGDV
TAF
KGDV 262333Z 2700/2724 07009KT P6SM VCTS SCT100CB
     FM270900 06005KT P6SM VCSH SCT100 PROB30 2709/2712 6SM TS
      BKN100CB
     FM271200 06005KT P6SM VCSH BKN100 PROB30 2712/2718 6SM TS
      OVC040CB=

USA.gov is the U.S. government's official web portal to all federal, state and local government web resources and services.